createdAt,value
2023-03-22T00:01:19.504Z,100235.94
2023-03-22T00:03:49.464Z,100224.31
2023-03-22T00:06:19.069Z,100235.50
2023-03-22T00:08:51.505Z,100230.03
2023-03-22T00:11:20.942Z,100223.44
2023-03-22T00:13:52.523Z,100217.78
2023-03-22T00:16:23.060Z,100225.16
2023-03-22T00:18:52.191Z,100226.78
2023-03-22T00:21:21.159Z,100219.06
2023-03-22T00:23:49.532Z,100215.00
2023-03-22T00:26:17.994Z,100219.34
2023-03-22T00:28:46.531Z,100215.16
2023-03-22T00:31:15.240Z,100220.94
2023-03-22T00:33:45.235Z,100214.34
2023-03-22T00:36:15.926Z,100208.56
2023-03-22T00:38:53.872Z,100203.41
2023-03-22T00:41:23.737Z,100214.84
2023-03-22T00:43:53.062Z,100206.03
2023-03-22T00:46:23.027Z,100198.56
2023-03-22T00:48:52.840Z,100210.13
2023-03-22T00:51:21.326Z,100194.75
2023-03-22T00:53:50.988Z,100183.00
2023-03-22T00:56:19.695Z,100194.16
2023-03-22T00:58:48.074Z,100184.00
2023-03-22T01:01:16.561Z,100181.78
2023-03-22T01:03:45.500Z,100180.97
2023-03-22T01:06:15.617Z,100171.56
2023-03-22T01:08:43.979Z,100170.34
2023-03-22T01:11:12.802Z,100172.44
2023-03-22T01:13:42.352Z,100165.75
2023-03-22T01:16:11.457Z,100164.13
2023-03-22T01:18:40.806Z,100154.81
2023-03-22T01:21:09.864Z,100155.78
2023-03-22T01:23:39.950Z,100163.63
2023-03-22T01:26:08.472Z,100159.19
2023-03-22T01:28:36.935Z,100155.47
2023-03-22T01:31:05.649Z,100156.78
2023-03-22T01:33:34.133Z,100145.13
2023-03-22T01:36:02.590Z,100147.72
2023-03-22T01:38:31.012Z,100147.16
2023-03-22T01:41:00.768Z,100143.28
2023-03-22T01:43:29.558Z,100138.31
2023-03-22T01:45:58.311Z,100132.84
2023-03-22T01:48:31.286Z,100121.63
2023-03-22T01:51:05.141Z,100117.63
2023-03-22T01:53:38.040Z,100122.72
2023-03-22T01:56:09.594Z,100109.84
2023-03-22T01:58:39.702Z,100118.59
2023-03-22T02:01:10.986Z,100115.38
2023-03-22T02:03:46.027Z,100106.66
2023-03-22T02:06:14.945Z,100098.22
2023-03-22T02:08:43.333Z,100097.22
2023-03-22T02:11:17.730Z,100096.09
2023-03-22T02:14:27.285Z,100093.38
2023-03-22T02:17:20.034Z,100087.41
2023-03-22T02:20:20.314Z,100086.03
2023-03-22T02:23:11.092Z,100083.78
2023-03-22T02:26:03.231Z,100070.25
2023-03-22T02:28:43.554Z,100085.41
2023-03-22T02:31:26.012Z,100073.34
2023-03-22T02:34:15.668Z,100081.53
2023-03-22T02:37:20.161Z,100076.06
2023-03-22T02:39:54.496Z,100072.72
2023-03-22T02:42:35.713Z,100064.16
2023-03-22T02:45:12.001Z,100067.63
2023-03-22T02:47:44.703Z,100058.44
2023-03-22T02:50:21.387Z,100058.94
2023-03-22T02:52:54.046Z,100053.59
2023-03-22T02:55:30.575Z,100051.78
2023-03-22T02:58:04.722Z,100045.22
2023-03-22T03:00:36.719Z,100045.06
2023-03-22T03:03:12.169Z,100055.81
2023-03-22T03:05:43.741Z,100051.53
2023-03-22T03:08:14.429Z,100045.22
2023-03-22T03:10:46.556Z,100045.97
2023-03-22T03:13:16.740Z,100051.88
2023-03-22T03:15:49.993Z,100045.69
2023-03-22T03:18:32.228Z,100043.19
2023-03-22T03:21:08.881Z,100042.00
2023-03-22T03:23:50.469Z,100047.06
2023-03-22T03:26:38.217Z,100045.34
2023-03-22T03:29:12.850Z,100034.44
2023-03-22T03:31:46.378Z,100036.66
2023-03-22T03:34:19.338Z,100031.44
2023-03-22T03:36:53.632Z,100033.34
2023-03-22T03:39:25.646Z,100031.53
2023-03-22T03:41:57.295Z,100023.63
2023-03-22T03:44:25.964Z,100027.88
2023-03-22T03:46:55.453Z,100024.44
2023-03-22T03:49:27.262Z,100022.72
2023-03-22T03:51:57.282Z,100018.38
2023-03-22T03:54:25.951Z,100020.59
2023-03-22T03:56:55.910Z,100025.34
2023-03-22T03:59:24.396Z,100021.81
2023-03-22T04:01:53.053Z,100020.91
2023-03-22T04:04:26.675Z,100023.53
2023-03-22T04:07:00.437Z,100024.75
2023-03-22T04:09:30.725Z,100026.19
2023-03-22T04:12:00.904Z,100023.13
2023-03-22T04:14:29.512Z,100013.84
2023-03-22T04:16:57.912Z,100016.09
2023-03-22T04:19:26.664Z,100014.84
2023-03-22T04:21:55.441Z,100015.28
2023-03-22T04:24:23.856Z,100012.22
2023-03-22T04:26:53.219Z,100009.47
2023-03-22T04:29:23.074Z,100007.91
2023-03-22T04:31:53.021Z,100011.44
2023-03-22T04:34:21.732Z,100000.91
2023-03-22T04:36:50.652Z,100007.78
2023-03-22T04:39:19.277Z,100000.91
2023-03-22T04:41:47.875Z,100003.75
2023-03-22T04:44:16.309Z,100001.53
2023-03-22T04:46:46.097Z,100000.50
2023-03-22T04:49:14.434Z,100000.69
2023-03-22T04:51:42.796Z,100007.59
2023-03-22T04:54:11.326Z,99997.28
2023-03-22T04:56:39.705Z,100003.34
2023-03-22T04:59:08.137Z,100000.69
2023-03-22T05:01:37.467Z,99997.56
2023-03-22T05:04:07.751Z,99996.25
2023-03-22T05:06:36.061Z,100002.91
2023-03-22T05:09:05.952Z,99991.41
2023-03-22T05:11:34.333Z,99995.66
2023-03-22T05:14:02.999Z,100001.44
2023-03-22T05:16:31.442Z,99990.78
2023-03-22T05:19:02.472Z,99997.25
2023-03-22T05:21:36.555Z,99994.41
2023-03-22T05:24:05.731Z,99989.97
2023-03-22T05:26:37.881Z,99992.47
2023-03-22T05:29:06.436Z,99998.63
2023-03-22T05:31:34.799Z,100001.94
2023-03-22T05:34:03.304Z,99993.34
2023-03-22T05:36:36.448Z,99995.59
2023-03-22T05:39:05.261Z,99996.78
2023-03-22T05:41:36.223Z,99999.22
2023-03-22T05:44:05.367Z,99996.97
2023-03-22T05:46:42.366Z,99992.53
2023-03-22T05:49:12.175Z,99995.56
2023-03-22T05:51:42.576Z,99988.88
2023-03-22T05:54:11.746Z,99999.75
2023-03-22T05:56:40.638Z,100007.00
2023-03-22T05:59:09.338Z,99987.78
2023-03-22T06:01:39.312Z,99988.31
2023-03-22T06:04:07.835Z,99996.88
2023-03-22T06:06:36.374Z,99998.41
2023-03-22T06:09:16.304Z,99988.66
2023-03-22T06:11:45.685Z,99998.16
2023-03-22T06:14:14.048Z,99982.13
2023-03-22T06:16:42.609Z,99998.38
2023-03-22T06:19:11.251Z,99973.16
2023-03-22T06:21:39.658Z,99983.34
2023-03-22T06:24:10.185Z,99985.81
2023-03-22T06:26:38.597Z,99983.72
2023-03-22T06:29:07.196Z,99976.00
2023-03-22T06:31:35.643Z,99982.28
2023-03-22T06:34:04.543Z,99978.47
2023-03-22T06:36:33.016Z,99971.28
2023-03-22T06:39:02.927Z,99968.88
2023-03-22T06:41:32.744Z,99974.69
2023-03-22T06:44:01.517Z,99968.06
2023-03-22T06:46:30.041Z,99970.69
2023-03-22T06:48:58.577Z,99968.09
2023-03-22T06:51:27.043Z,99969.22
2023-03-22T06:53:55.677Z,99964.19
2023-03-22T06:56:24.203Z,99964.84
2023-03-22T06:58:54.610Z,99980.81
2023-03-22T07:01:23.276Z,99976.13
2023-03-22T07:03:51.853Z,99964.09
2023-03-22T07:06:20.366Z,99958.94
2023-03-22T07:08:50.898Z,99956.66
2023-03-22T07:11:20.748Z,99961.50
2023-03-22T07:13:49.165Z,99957.63
2023-03-22T07:16:20.103Z,99948.00
2023-03-22T07:18:48.683Z,99957.03
2023-03-22T07:21:17.263Z,99955.25
2023-03-22T07:23:45.737Z,99946.38
2023-03-22T07:26:14.328Z,99957.00
2023-03-22T07:28:44.482Z,99956.03
2023-03-22T07:31:14.442Z,99948.50
2023-03-22T07:33:44.334Z,99944.00
2023-03-22T07:36:13.096Z,99949.00
2023-03-22T07:38:41.914Z,99947.81
2023-03-22T07:41:10.694Z,99948.47
2023-03-22T07:43:53.182Z,99948.75
2023-03-22T07:46:24.081Z,99946.91
2023-03-22T07:48:53.809Z,99940.41
2023-03-22T07:51:22.584Z,99926.16
2023-03-22T07:53:51.394Z,99935.69
2023-03-22T07:56:19.925Z,99933.91
2023-03-22T07:58:48.648Z,99927.50
2023-03-22T08:01:17.053Z,99950.75
2023-03-22T08:03:45.532Z,99929.88
2023-03-22T08:06:16.490Z,99935.66
2023-03-22T08:08:44.838Z,99945.59
2023-03-22T08:11:13.418Z,99947.88
2023-03-22T08:13:41.901Z,99950.41
2023-03-22T08:16:10.467Z,99948.69
2023-03-22T08:18:38.886Z,99946.25
2023-03-22T08:21:07.988Z,99944.97
2023-03-22T08:23:42.136Z,99949.50
2023-03-22T08:26:11.648Z,99944.16
2023-03-22T08:28:40.077Z,99954.00
2023-03-22T08:31:14.698Z,99941.53
2023-03-22T08:33:44.636Z,99938.78
2023-03-22T08:36:16.363Z,99939.34
2023-03-22T08:38:46.376Z,99961.03
2023-03-22T08:41:15.987Z,99960.25
2023-03-22T08:43:44.659Z,99956.38
2023-03-22T08:46:13.136Z,99956.91
2023-03-22T08:48:42.363Z,99971.06
2023-03-22T08:51:11.089Z,99957.88
2023-03-22T08:53:39.584Z,99946.84
2023-03-22T08:56:10.440Z,99954.13
2023-03-22T08:58:38.961Z,99963.13
2023-03-22T09:01:07.632Z,99938.94
2023-03-22T09:03:36.336Z,99952.69
2023-03-22T09:06:05.321Z,99953.41
2023-03-22T09:08:33.983Z,99951.22
2023-03-22T09:11:02.350Z,99955.75
2023-03-22T09:13:32.653Z,99984.06
2023-03-22T09:16:01.476Z,99953.22
2023-03-22T09:18:29.881Z,99958.22
2023-03-22T09:20:58.237Z,99948.94
2023-03-22T09:23:27.146Z,99956.31
2023-03-22T09:25:55.738Z,99937.84
2023-03-22T09:28:25.197Z,99940.09
2023-03-22T09:30:55.695Z,99944.91
2023-03-22T09:33:24.373Z,99947.19
2023-03-22T09:35:54.589Z,99950.50
2023-03-22T09:38:23.349Z,99949.16
2023-03-22T09:41:00.432Z,99936.63
2023-03-22T09:43:33.691Z,99940.66
2023-03-22T09:46:06.325Z,99939.09
2023-03-22T09:48:38.641Z,99940.28
2023-03-22T09:51:21.575Z,99933.75
2023-03-22T09:53:51.702Z,99944.63
2023-03-22T09:56:24.881Z,99940.44
2023-03-22T09:59:00.874Z,99938.13
2023-03-22T10:01:39.298Z,99939.66
2023-03-22T10:04:19.782Z,99930.34
2023-03-22T10:06:52.237Z,99924.97
2023-03-22T10:09:28.575Z,99930.00
2023-03-22T10:12:04.953Z,99931.63
2023-03-22T10:14:38.955Z,99923.63
2023-03-22T10:17:13.273Z,99921.47
2023-03-22T10:19:51.964Z,99918.44
2023-03-22T10:22:25.644Z,99941.00
2023-03-22T10:24:55.008Z,99939.53
2023-03-22T10:27:24.777Z,99919.41
2023-03-22T10:29:58.635Z,99919.03
2023-03-22T10:32:38.957Z,99924.47
2023-03-22T10:35:15.846Z,99933.53
2023-03-22T10:37:47.795Z,99921.53
2023-03-22T10:40:21.353Z,99898.06
2023-03-22T10:42:55.561Z,99897.56
2023-03-22T10:45:25.781Z,99917.34
2023-03-22T10:48:01.757Z,99914.34
2023-03-22T10:50:35.398Z,99918.44
2023-03-22T10:53:06.839Z,99911.34
2023-03-22T10:55:40.534Z,99915.88
2023-03-22T10:58:14.930Z,99930.97
2023-03-22T11:00:49.568Z,99930.41
2023-03-22T11:03:30.666Z,99932.69
2023-03-22T11:06:02.945Z,99926.13
2023-03-22T11:08:40.049Z,99923.72
2023-03-22T11:11:18.736Z,99925.91
2023-03-22T11:13:57.059Z,99907.84
2023-03-22T11:16:26.316Z,99904.38
2023-03-22T11:18:59.136Z,99927.09
2023-03-22T11:21:33.016Z,99921.28
2023-03-22T11:24:05.681Z,99920.13
2023-03-22T11:26:41.608Z,99914.22
2023-03-22T11:29:17.983Z,99923.53
2023-03-22T11:31:55.801Z,99918.53
2023-03-22T11:34:29.520Z,99914.53
2023-03-22T11:37:01.385Z,99912.06
2023-03-22T11:39:30.982Z,99917.34
2023-03-22T11:42:06.561Z,99921.81
2023-03-22T11:44:37.911Z,99924.50
2023-03-22T11:47:09.764Z,99912.72
2023-03-22T11:49:45.480Z,99903.44
2023-03-22T11:52:18.701Z,99900.97
2023-03-22T11:54:48.871Z,99905.00
2023-03-22T11:57:21.594Z,99911.19
2023-03-22T11:59:58.235Z,99910.63
2023-03-22T12:02:30.382Z,99908.69
2023-03-22T12:05:07.148Z,99902.50
2023-03-22T12:07:37.574Z,99902.72
2023-03-22T12:10:12.931Z,99893.84
2023-03-22T12:12:47.378Z,99897.78
2023-03-22T12:15:21.234Z,99892.56
2023-03-22T12:17:56.030Z,99893.22
2023-03-22T12:20:37.266Z,99892.41
2023-03-22T12:23:14.556Z,99895.31
2023-03-22T12:25:47.349Z,99896.44
2023-03-22T12:28:19.280Z,99874.25
2023-03-22T12:30:51.115Z,99904.38
2023-03-22T12:33:24.825Z,99893.41
2023-03-22T12:35:59.159Z,99886.88
2023-03-22T12:38:34.068Z,99885.88
2023-03-22T12:41:08.934Z,99907.78
2023-03-22T12:43:47.825Z,99892.41
2023-03-22T12:46:22.360Z,99899.13
2023-03-22T12:48:54.753Z,99900.03
2023-03-22T12:51:24.720Z,99895.63
2023-03-22T12:53:57.055Z,99892.41
2023-03-22T12:56:39.638Z,99898.22
2023-03-22T12:59:16.867Z,99916.03
2023-03-22T13:01:51.327Z,99902.16
2023-03-22T13:04:50.468Z,99911.56
2023-03-22T13:07:38.991Z,99921.59
2023-03-22T13:10:41.820Z,99913.09
2023-03-22T13:13:13.593Z,99909.03
2023-03-22T13:15:59.043Z,99917.72
2023-03-22T13:18:42.293Z,99904.16
2023-03-22T13:21:16.741Z,99900.25
2023-03-22T13:23:57.977Z,99918.31
2023-03-22T13:26:34.590Z,99902.81
2023-03-22T13:29:11.699Z,99895.59
2023-03-22T13:31:44.975Z,99907.34
2023-03-22T13:34:16.895Z,99903.47
2023-03-22T13:36:54.934Z,99908.44
2023-03-22T13:39:27.328Z,99900.69
2023-03-22T13:42:09.548Z,99896.09
2023-03-22T13:44:40.605Z,99892.34
2023-03-22T13:47:35.144Z,99885.03
2023-03-22T13:50:12.480Z,99898.31
2023-03-22T13:52:43.635Z,99885.88
2023-03-22T13:55:33.728Z,99876.63
2023-03-22T13:58:05.823Z,99868.25
2023-03-22T14:00:48.042Z,99869.78
2023-03-22T14:03:25.510Z,99857.56
2023-03-22T14:06:04.936Z,99856.56
2023-03-22T14:08:35.598Z,99848.66
2023-03-22T14:11:17.348Z,99862.16
2023-03-22T14:13:51.452Z,99845.16
2023-03-22T14:16:30.469Z,99850.22
2023-03-22T14:19:01.753Z,99869.91
2023-03-22T14:21:34.141Z,99862.00
